Last 7 Days

Gordon Valley 3 (GV3)

Hourly Data | America/Los_Angeles
as of 12/12/19 3:41 AM PST
Date & Time Temp (°F) RH (%) Dew Pt (°F) Wind Spd (mph) Wind Dir (°) Wind Gust (mph) Wind Gst Dir (°) Latest Rain (In) Solar Rad Tot Hr (Cal/cm2) Daily Rain (In) Daily Min Temp (°F) Daily Max Temp (°F)
12/11/19 - 2100 52.0 100 51.8 0.1 E | 92 2.1 E | 92 0.01 0 0.12 49.7 54.0
12/11/19 - 2000 52.0 99 51.7 0.4 NNW | 331 4.4 NNW | 327 0.00 0 0.11 49.7 54.0
12/11/19 - 1900 52.1 97 51.3 0.5 SSE | 162 3.8 ESE | 108 0.01 0 0.11 49.7 54.0
12/11/19 - 1800 52.1 97 51.4 2.1 SSE | 152 5.9 ESE | 122 0.00 0 0.10 49.7 54.0
12/11/19 - 1700 52.3 97 51.6 1.3 SSE | 164 5.3 S | 175 0.00 0 0.10 49.7 54.0
12/11/19 - 1600 53.0 97 52.1 2.0 SE | 145 7.1 SSE | 161 0.00 2 0.10 49.7 54.0
12/11/19 - 1500 53.8 98 53.2 1.6 SW | 228 3.9 WSW | 252 0.00 5 0.10 49.7 54.0
12/11/19 - 1400 53.4 98 52.9 1.0 SW | 232 3.4 WSW | 237 0.00 5 0.10 49.7 53.8
12/11/19 - 1300 53.3 97 52.4 1.7 SW | 221 4.3 SW | 226 0.09 6 0.10 49.7 53.8
12/11/19 - 1200 53.2 96 52.0 0.3 SW | 217 2.9 SSW | 203 0.00 7 0.01 49.7 53.7
12/11/19 - 1100 52.4 97 51.7 0.3 W | 269 2.7 W | 273 0.00 6 0.01 49.7 52.8
12/11/19 - 1000 52.0 98 51.6 0.3 SSW | 207 2.6 SSW | 211 0.00 5 0.01 49.7 52.4
12/11/19 - 0900 51.1 99 50.9 0.0 SE | 137 1.6 ESE | 117 0.00 3 0.01 49.7 51.5
12/11/19 - 0800 50.5 100 50.5 0.3 WSW | 239 2.4 SSW | 210 0.00 1 0.01 49.7 50.7
12/11/19 - 0700 50.5 100 50.4 0.4 WSW | 256 2.9 WSW | 252 0.00 0 0.01 49.7 50.6
12/11/19 - 0600 50.4 99 50.3 0.2 NE | 36 2.7 NNW | 344 0.00 0 0.01 49.7 50.6
12/11/19 - 0500 50.2 100 50.2 0.1 NNE | 20 2.4 NNE | 15 0.00 0 0.01 49.7 50.5
12/11/19 - 0400 50.0 100 50.0 0.2 N | 3 2.6 NNE | 32 0.00 0 0.01 49.7 50.2
12/11/19 - 0300 49.9 100 49.9 0.1 NNE | 18 1.9 N | 11 0.01 0 0.01 49.7 50.2
12/11/19 - 0200 50.1 100 50.0 0.0 W | 260 0.7 W | 260 0.00 0 0.00 50.0 50.2
12/11/19 - 0100 50.1 100 50.0 0.2 SW | 234 3.1 N | 351 0.00 0 0.00 50.1 50.2
12/11/19 - 0000 50.2 99 50.0 0.3 ENE | 77 3.4 ENE | 78 0.01 0 0.15 42.4 54.2
12/10/19 - 2300 50.6 99 50.3 1.9 E | 89 5.8 E | 91 0.00 0 0.14 42.4 54.2
12/10/19 - 2200 50.5 100 50.5 0.8 SW | 225 3.6 SW | 227 0.01 0 0.14 42.4 54.2
12/10/19 - 2100 50.2 99 50.0 0.2 WSW | 255 3.4 WSW | 255 0.05 0 0.13 42.4 54.2
12/10/19 - 2000 50.6 98 50.0 0.2 NE | 35 3.1 NNE | 18 0.05 0 0.08 42.4 54.2
12/10/19 - 1900 51.9 90 49.0 0.6 NW | 315 4.8 NNW | 334 0.03 0 0.03 42.4 54.2
12/10/19 - 1800 52.1 86 48.0 0.6 NW | 311 3.3 NNW | 327 0.00 0 0.00 42.4 54.2
12/10/19 - 1700 52.6 83 47.7 2.0 ENE | 72 6.3 NE | 36 0.00 1 0.00 42.4 54.2
12/10/19 - 1600 53.6 81 47.9 1.7 E | 81 4.6 E | 80 0.00 3 0.00 42.4 54.2
12/10/19 - 1500 53.8 80 47.8 2.0 E | 100 5.6 ENE | 78 0.00 5 0.00 42.4 54.2
12/10/19 - 1400 54.1 79 47.6 1.1 SE | 139 3.9 ESE | 113 0.00 8 0.00 42.4 54.2
12/10/19 - 1300 53.5 79 47.0 0.8 SSE | 150 4.3 SSE | 163 0.00 8 0.00 42.4 54.0
12/10/19 - 1200 52.7 82 47.4 2.1 ENE | 64 4.8 ESE | 106 0.00 9 0.00 42.4 53.2
12/10/19 - 1100 51.8 88 48.4 2.6 ESE | 113 7.4 E | 87 0.00 10 0.00 42.4 52.3
12/10/19 - 1000 50.2 97 49.4 0.0 WSW | 244 1.7 WSW | 252 0.00 7 0.00 42.4 51.1
12/10/19 - 0900 48.3 100 48.2 1.4 NNE | 29 6.1 N | 0 0.00 5 0.00 42.4 49.4
12/10/19 - 0800 46.8 100 46.8 1.6 N | 350 4.8 NNE | 16 0.00 1 0.00 42.4 47.6
12/10/19 - 0700 45.2 100 45.2 0.4 NE | 47 2.7 E | 87 0.00 0 0.00 42.4 46.2
12/10/19 - 0600 43.2 100 43.2 0.3 NE | 35 2.6 NNE | 23 0.00 0 0.00 42.4 46.2
12/10/19 - 0500 44.6 100 44.6 0.4 NE | 46 2.6 ENE | 58 0.00 0 0.00 42.4 46.2
12/10/19 - 0400 45.6 100 45.6 1.3 NE | 36 6.4 N | 10 0.00 0 0.00 42.4 46.2
12/10/19 - 0300 45.2 100 45.2 1.3 NE | 51 4.4 NE | 50 0.00 0 0.00 42.4 45.7
12/10/19 - 0200 44.9 100 44.9 1.8 NNE | 28 5.9 NW | 313 0.00 0 0.00 42.4 45.4
12/10/19 - 0100 43.7 100 43.7 1.2 NNE | 22 6.1 ENE | 68 0.00 0 0.00 42.4 45.0
12/10/19 - 0000 41.6 100 41.5 0.9 NNE | 23 5.3 NNE | 14 0.00 0 0.01 40.1 62.8
12/9/19 - 2300 43.5 99 43.3 0.6 NNE | 21 3.1 N | 2 0.00 0 0.01 41.0 62.8
12/9/19 - 2200 44.5 98 44.0 0.6 NE | 35 4.1 N | 10 0.00 0 0.01 41.0 62.8
12/9/19 - 2100 47.4 96 46.2 1.7 N | 10 4.9 N | 0 0.00 0 0.01 41.0 62.8
12/9/19 - 2000 48.6 95 47.2 3.1 N | 9 6.9 N | 354 0.00 0 0.01 41.0 62.8
12/9/19 - 1900 48.6 96 47.6 2.3 N | 2 5.9 NE | 35 0.00 0 0.01 41.0 62.8
12/9/19 - 1800 49.5 93 47.6 1.7 N | 356 6.3 N | 0 0.00 0 0.01 41.0 62.8
12/9/19 - 1700 53.4 85 48.9 1.1 NNE | 19 5.3 N | 7 0.00 2 0.01 41.0 62.8
12/9/19 - 1600 56.6 80 50.4 3.7 SE | 132 9.0 S | 173 0.00 14 0.01 41.0 62.8
12/9/19 - 1500 58.9 74 50.8 6.2 SSE | 164 10.1 S | 188 0.00 29 0.01 41.0 62.8
12/9/19 - 1400 60.4 72 51.4 6.5 S | 186 10.1 S | 181 0.00 38 0.01 41.0 62.8
12/9/19 - 1300 61.8 69 51.4 4.6 S | 181 8.3 S | 174 0.00 43 0.01 41.0 62.8
12/9/19 - 1200 60.6 67 49.6 4.1 S | 174 8.4 SSE | 163 0.00 43 0.01 41.0 62.1
12/9/19 - 1100 59.7 68 49.2 3.3 S | 181 6.6 SSW | 209 0.00 37 0.01 41.0 60.3
12/9/19 - 1000 55.9 76 48.3 0.7 E | 93 3.8 NNW | 332 0.00 27 0.01 41.0 59.9
12/9/19 - 0900 48.7 94 47.0 2.1 NNE | 20 6.6 NNE | 26 0.00 16 0.01 41.0 51.7
12/9/19 - 0800 43.1 100 43.0 1.3 N | 7 5.4 NNE | 20 0.00 2 0.01 41.0 46.1
12/9/19 - 0700 42.4 100 42.3 0.7 NNE | 33 2.7 NNE | 15 0.00 0 0.01 41.0 46.1
12/9/19 - 0600 42.4 100 42.3 1.3 N | 354 4.3 NW | 322 0.00 0 0.01 41.0 46.1
12/9/19 - 0500 44.2 99 43.8 1.6 N | 9 4.9 NNE | 18 0.01 0 0.01 41.0 46.1
12/9/19 - 0400 42.8 100 42.8 1.9 NNE | 31 6.3 N | 352 0.00 0 0.00 41.0 45.5
12/9/19 - 0300 42.2 100 42.2 2.2 NE | 34 3.9 NE | 34 0.00 0 0.00 41.0 43.8
12/9/19 - 0200 41.8 100 41.8 1.8 NNE | 33 4.4 NE | 38 0.00 0 0.00 41.0 43.8
12/9/19 - 0100 42.6 100 42.6 0.9 NE | 52 2.6 NE | 54 0.00 0 0.00 41.8 43.8
12/9/19 - 0000 42.1 100 42.1 1.1 NE | 38 3.6 NE | 44 0.00 0 0.00 0.0 64.9
12/8/19 - 2300 44.2 100 44.1 0.6 NE | 38 3.4 NE | 38 0.00 0 0.00 0.0 64.9
12/8/19 - 2200 46.2 100 46.2 1.0 NE | 43 3.4 NE | 49 0.00 0 0.00 0.0 64.9
12/8/19 - 2100 46.2 100 46.1 0.7 ENE | 57 2.9 NNE | 31 0.00 0 0.00 0.0 64.9
12/8/19 - 2000 47.8 99 47.5 0.8 NNE | 23 3.8 NNE | 28 0.00 0 0.00 0.0 64.9
12/8/19 - 1900 48.6 99 48.4 0.4 NE | 38 3.3 NNE | 28 0.00 0 0.00 0.0 64.9
12/8/19 - 1800 50.3 95 48.9 0.2 NE | 40 2.4 NE | 40 0.00 0 0.00 0.0 64.9
12/8/19 - 1700 56.2 82 50.8 0.2 N | 359 5.4 NNE | 22 0.00 1 0.00 0.0 64.9
12/8/19 - 1600 61.8 67 50.8 3.0 NNE | 30 9.6 NNE | 30 0.00 13 0.00 0.0 64.9
12/8/19 - 1500 60.6 74 52.2 1.6 WNW | 296 4.6 W | 271 0.00 14 0.00 0.0 64.9
12/8/19 - 1400 63.0 67 51.6 2.5 E | 88 9.8 NE | 43 0.00 36 0.00 0.0 64.9
12/8/19 - 1300 61.0 70 51.0 1.7 WNW | 294 5.8 WNW | 299 0.00 32 0.00 0.0 64.2
12/8/19 - 1200 60.0 78 53.0 1.4 SSW | 212 4.6 SSW | 198 0.00 26 0.00 0.0 63.6
12/8/19 - 1100 57.4 87 53.6 1.3 SW | 235 5.4 WSW | 247 0.00 15 0.00 0.0 59.2
12/8/19 - 1000 55.7 96 54.7 0.8 SSE | 152 3.8 SE | 138 0.00 15 0.00 0.0 57.0
12/8/19 - 0900 53.9 100 53.9 0.3 SSW | 213 2.2 SW | 227 0.00 3 0.00 0.0 54.2
12/7/19 - 2200 56.8 92 54.7 8.1 SSW | 205 16.3 SW | 217 0.03 0 0.17 0.0 63.7
12/7/19 - 2100 56.8 92 54.6 8.4 SSW | 206 17.7 SSW | 199 0.00 0 0.14 0.0 63.7
12/7/19 - 2000 56.8 91 54.4 6.7 SSW | 198 12.3 SSW | 198 0.00 0 0.14 0.0 63.7
12/7/19 - 1900 55.4 90 52.7 3.4 S | 181 10.0 SSW | 199 0.00 0 0.14 0.0 63.7
12/7/19 - 1800 56.1 86 52.0 3.5 SSW | 198 11.6 WSW | 239 0.00 0 0.14 0.0 63.7
12/7/19 - 1700 56.9 87 53.0 8.2 SW | 225 16.8 SW | 228 0.00 1 0.14 0.0 63.7
12/7/19 - 1600 58.6 88 55.2 10.9 SSW | 201 20.4 SW | 218 0.00 8 0.14 0.0 63.7
12/7/19 - 1500 58.0 95 56.6 7.5 SSW | 203 18.3 SW | 215 0.09 2 0.14 0.0 63.7
12/7/19 - 1400 59.6 86 55.5 11.6 SSW | 194 19.5 S | 191 0.03 4 0.05 0.0 63.7
12/7/19 - 1300 60.6 81 54.7 12.3 S | 188 23.9 S | 185 0.01 9 0.02 0.0 63.7
12/7/19 - 1200 62.4 72 53.5 13.4 S | 183 25.9 S | 174 0.01 19 0.01 0.0 63.7
12/7/19 - 1100 60.9 76 53.2 11.4 S | 173 19.2 SSE | 160 0.00 10 0.00 0.0 62.1
12/7/19 - 1000 60.7 81 54.7 9.8 S | 176 18.8 S | 189 0.00 17 0.00 0.0 61.3
12/7/19 - 0900 58.1 94 56.2 5.4 S | 178 12.5 S | 186 0.00 19 0.00 0.0 60.7
12/7/19 - 0800 54.3 100 54.3 3.7 SSE | 159 5.4 SSE | 163 0.00 1 0.00 0.0 54.7
12/7/19 - 0100 53.4 99 53.3 0.9 SSW | 196 5.9 SW | 236 0.02 0 0.02 53.4 53.6
12/7/19 - 0000 53.5 99 53.3 1.6 S | 188 6.6 SSE | 168 0.01 0 0.47 52.0 62.6
12/6/19 - 2300 53.7 99 53.5 0.5 SSW | 194 4.6 SSW | 203 0.10 0 0.46 52.0 62.6
12/6/19 - 2200 54.2 99 54.0 0.8 E | 84 5.4 S | 188 0.18 0 0.36 52.0 62.6
12/6/19 - 2100 54.6 98 54.1 0.8 NNE | 24 3.4 ENE | 74 0.12 0 0.18 52.0 62.6
12/6/19 - 2000 54.8 97 54.1 1.0 NE | 47 4.4 NE | 42 0.01 0 0.06 52.0 62.6
12/6/19 - 1900 55.4 94 53.6 1.4 SSE | 159 8.3 SE | 146 0.02 0 0.05 52.0 62.6
12/6/19 - 1800 56.7 88 53.1 2.6 SW | 215 9.1 WSW | 237 0.03 0 0.03 52.0 62.6
12/6/19 - 1700 58.2 84 53.6 0.6 WSW | 252 4.3 WSW | 252 0.00 0 0.00 52.0 62.6
12/6/19 - 1600 59.6 80 53.4 0.3 W | 261 3.9 WSW | 256 0.00 3 0.00 52.0 62.6
12/6/19 - 1500 59.9 80 53.7 3.3 SW | 215 9.1 S | 182 0.00 5 0.00 52.0 62.6
12/6/19 - 1400 61.4 73 52.8 3.4 SSE | 147 7.6 SE | 139 0.00 14 0.00 52.0 62.6
12/6/19 - 1300 60.7 72 51.8 2.4 SSE | 160 6.9 E | 85 0.00 29 0.00 52.0 62.6
12/6/19 - 1200 60.2 77 53.0 2.5 SSW | 196 7.8 SSE | 164 0.00 35 0.00 52.0 61.7
12/6/19 - 1100 55.5 92 53.4 1.9 SW | 216 4.4 SW | 224 0.00 15 0.00 0.0 56.9
12/6/19 - 1000 54.8 97 53.9 1.8 SSW | 213 3.9 SW | 228 0.00 5 0.00 0.0 55.2
12/5/19 - 1600 57.1 80 51.0 0.3 ESE | 116 3.4 ENE | 69 0.00 4 0.00 0.0 57.7
12/5/19 - 1500 57.3 81 51.4 2.8 ENE | 61 7.6 NNE | 32 0.00 11 0.00 0.0 57.7
12/5/19 - 1400 56.7 86 52.5 3.6 E | 93 6.8 ENE | 78 0.00 14 0.00 0.0 57.5
12/5/19 - 1300 57.0 86 52.7 3.8 E | 81 8.0 NNE | 31 0.00 13 0.00 0.0 57.3
12/5/19 - 1200 55.9 89 52.6 3.3 ENE | 68 6.4 ENE | 61 0.00 12 0.00 0.0 57.0
12/5/19 - 1100 55.5 92 53.1 4.4 ENE | 62 8.1 E | 80 0.00 8 0.00 0.0 55.9
Max 63.0 100 56.6 13.4 - 25.9 - 0.18 43 0.47 53.4 64.9
Avg 52.7 91 50.0 2.3 - 6.3 - 0.01 6 - - -
Min 41.6 67 41.5 0.0 - 0.7 - 0.00 0 0.00 0.0 43.8
Total - - - - - - - 0.94 - - - -
Tip: Bookmark this page for easy future reference